Dobbins Air Reserve Base Airport
KMGE : rendu visible

Aérodrome :











RETROUVEZ-NOUS SUR...

 
LOGIN :

S'inscrire | Disclaimer

   EN    FR    IT 

 









Légende :    VFR   VFR Marginal   IFR   IFR Intensif   IFR Très Intensif
Visi : 
Plafond : 
>= 8 km
>= 3000ft
5 à 8 km
1000 à 3000 ft
1500m à 5 km
500 à 1000 ft
800 à 1500m
200 à 500 ft
< 800m
< 200 ft
Symboles :   Orages  Brouillard  Fortes neiges  Fortes précipitations  Vent > 20 kt






- Altitude de l'aérodrome : 1068 ft


KMGE - Dobbins Air Reserve Base

DERNIER METAR :
  • 210156Z 31014G17KT 10SM CLR M03/M11 A3035 RMK AO2A SLP292 T10331106 $

METARs EXPIRÉS :
  • 210056Z 32007KT 10SM CLR M03/M10 A3035 RMK AO2A SLP293 T10271105 $
  • 202356Z 33011G17KT 10SM CLR M02/M10 A3034 RMK AO2A SLP288 T10181101 10024 21018 52011 $

TAF TAF KMGE
Valide du 20 à 22h jusqu'au 22 à 04h UTC


202205Z 2022/2204 32010G15KT 9999 SKC QNH3030INS WND 32010KT AFT 2100
BECMG 2104/2105 32008KT 9999 BKN050 QNH3030INS
BECMG 2115/2116 34008KT 9999 FEW050 FEW250 QNH3035INS
BECMG 2123/2124 32005KT 9999 SKC QNH3030INS TX05/2120Z TNM06/2112Z



MET'MAP, la Météo Aéronautique d'un coup d'oeil ! - Copyright ORBIFLY Décembre 2007 - Disclaimer

ORBIFLY MET'MAP TEAM :

Programmation & Développement : Alexandra Zaïnal
Sur une idée originale de : Baudouin d'Aumeries
Assistance à la programmation : Marc-Olivier Méhu
Soutien technique & logistique : Manuel Goepfert

Contact : metmap@orbifly.com




SOURCES & CREDITS :

   NOAA       Earth
Advisory